createdAt,value
2023-03-13T00:01:32.783Z,100829.81
2023-03-13T00:04:01.357Z,100840.06
2023-03-13T00:06:33.449Z,100835.50
2023-03-13T00:09:05.386Z,100839.63
2023-03-13T00:11:35.240Z,100838.09
2023-03-13T00:14:06.292Z,100837.06
2023-03-13T00:16:37.784Z,100837.84
2023-03-13T00:19:08.721Z,100844.44
2023-03-13T00:21:38.443Z,100843.53
2023-03-13T00:24:07.164Z,100844.63
2023-03-13T00:26:43.191Z,100840.84
2023-03-13T00:29:11.420Z,100833.38
2023-03-13T00:31:40.550Z,100837.31
2023-03-13T00:34:08.948Z,100846.22
2023-03-13T00:36:37.921Z,100838.03
2023-03-13T00:39:07.796Z,100844.31
2023-03-13T00:41:38.602Z,100850.09
2023-03-13T00:44:08.526Z,100844.47
2023-03-13T00:46:37.345Z,100844.00
2023-03-13T00:49:06.967Z,100840.47
2023-03-13T00:51:35.824Z,100838.63
2023-03-13T00:54:05.082Z,100838.25
2023-03-13T00:56:34.791Z,100842.94
2023-03-13T00:59:03.038Z,100843.53
2023-03-13T01:01:34.631Z,100852.31
2023-03-13T01:04:05.160Z,100855.88
2023-03-13T01:06:36.520Z,100848.34
2023-03-13T01:09:06.622Z,100852.16
2023-03-13T01:11:37.207Z,100856.13
2023-03-13T01:14:08.000Z,100864.13
2023-03-13T01:16:39.556Z,100850.41
2023-03-13T01:19:11.811Z,100856.03
2023-03-13T01:21:41.468Z,100858.19
2023-03-13T01:24:10.233Z,100856.97
2023-03-13T01:26:38.661Z,100862.50
2023-03-13T01:29:07.136Z,100862.50
2023-03-13T01:31:38.278Z,100861.47
2023-03-13T01:34:07.521Z,100875.34
2023-03-13T01:36:38.700Z,100866.03
2023-03-13T01:39:08.075Z,100863.22
2023-03-13T01:41:36.891Z,100869.91
2023-03-13T01:44:05.449Z,100869.16
2023-03-13T01:46:35.431Z,100870.63
2023-03-13T01:49:09.152Z,100879.03
2023-03-13T01:51:41.310Z,100883.06
2023-03-13T01:54:11.863Z,100884.25
2023-03-13T01:56:46.515Z,100885.78
2023-03-13T01:59:18.362Z,100886.34
2023-03-13T02:01:49.233Z,100902.84
2023-03-13T02:04:23.536Z,100905.59
2023-03-13T02:06:54.961Z,100915.22
2023-03-13T02:09:27.416Z,100916.13
2023-03-13T02:12:01.623Z,100917.31
2023-03-13T02:14:33.128Z,100919.56
2023-03-13T02:17:02.378Z,100922.69
2023-03-13T02:19:39.476Z,100925.78
2023-03-13T02:22:14.739Z,100924.75
2023-03-13T02:24:51.988Z,100931.81
2023-03-13T02:27:22.047Z,100945.22
2023-03-13T02:29:51.216Z,100945.00
2023-03-13T02:32:20.154Z,100956.44
2023-03-13T02:34:52.087Z,100953.31
2023-03-13T02:37:21.861Z,100956.38
2023-03-13T02:39:52.786Z,100959.91
2023-03-13T02:42:24.711Z,100950.66
2023-03-13T02:44:53.397Z,100959.16
2023-03-13T02:47:23.272Z,100961.81
2023-03-13T02:49:53.435Z,100971.06
2023-03-13T02:52:26.294Z,100970.00
2023-03-13T02:54:59.689Z,100976.78
2023-03-13T02:57:31.845Z,100978.66
2023-03-13T03:00:00.449Z,100977.41
2023-03-13T03:02:29.227Z,100981.63
2023-03-13T03:04:57.905Z,100979.88
2023-03-13T03:07:26.921Z,100971.78
2023-03-13T03:09:55.265Z,100976.66
2023-03-13T03:12:24.100Z,100984.47
2023-03-13T03:14:54.123Z,100985.25
2023-03-13T03:17:22.532Z,101005.53
2023-03-13T03:19:50.907Z,101005.69
2023-03-13T03:22:19.448Z,100995.34
2023-03-13T03:24:48.032Z,100992.22
2023-03-13T03:27:16.730Z,101005.69
2023-03-13T03:29:45.191Z,100998.34
2023-03-13T03:32:14.998Z,101007.44
2023-03-13T03:34:43.956Z,101010.41
2023-03-13T03:37:12.458Z,101006.69
2023-03-13T03:39:41.474Z,101000.78
2023-03-13T03:42:10.604Z,101009.16
2023-03-13T03:44:39.118Z,101006.25
2023-03-13T03:47:07.961Z,101013.81
2023-03-13T03:49:37.701Z,101014.63
2023-03-13T03:52:07.203Z,101010.31
2023-03-13T03:54:35.483Z,101011.81
2023-03-13T03:57:04.247Z,101007.47
2023-03-13T03:59:32.792Z,101012.63
2023-03-13T04:02:01.667Z,101017.84
2023-03-13T04:04:30.654Z,101013.03
2023-03-13T04:07:00.564Z,101013.91
2023-03-13T04:09:31.027Z,101022.19
2023-03-13T04:12:00.272Z,101021.91
2023-03-13T04:14:28.628Z,101028.13
2023-03-13T04:16:56.956Z,101030.06
2023-03-13T04:19:25.395Z,101032.47
2023-03-13T04:21:53.804Z,101037.66
2023-03-13T04:24:23.601Z,101052.72
2023-03-13T04:26:51.935Z,101049.16
2023-03-13T04:29:20.177Z,101057.44
2023-03-13T04:31:48.446Z,101049.75
2023-03-13T04:34:16.884Z,101062.84
2023-03-13T04:36:45.214Z,101062.50
2023-03-13T04:39:14.032Z,101055.16
2023-03-13T04:41:43.970Z,101063.09
2023-03-13T04:44:12.244Z,101071.25
2023-03-13T04:46:40.611Z,101071.13
2023-03-13T04:49:09.464Z,101069.84
2023-03-13T04:51:37.975Z,101076.84
2023-03-13T04:54:06.597Z,101073.69
2023-03-13T04:56:43.273Z,101077.50
2023-03-13T04:59:15.590Z,101083.59
2023-03-13T05:01:44.722Z,101081.59
2023-03-13T05:04:13.322Z,101094.63
2023-03-13T05:06:41.835Z,101106.06
2023-03-13T05:09:10.191Z,101102.00
2023-03-13T05:11:40.361Z,101104.47
2023-03-13T05:14:10.928Z,101107.38
2023-03-13T05:16:41.101Z,101098.22
2023-03-13T05:19:09.792Z,101111.53
2023-03-13T05:21:38.284Z,101114.50
2023-03-13T05:24:07.122Z,101112.78
2023-03-13T05:26:35.708Z,101116.09
2023-03-13T05:29:03.943Z,101124.94
2023-03-13T05:31:32.349Z,101125.72
2023-03-13T05:34:02.581Z,101123.53
2023-03-13T05:36:31.068Z,101129.44
2023-03-13T05:38:59.580Z,101135.91
2023-03-13T05:41:27.899Z,101133.03
2023-03-13T05:43:56.309Z,101130.41
2023-03-13T05:46:25.150Z,101132.28
2023-03-13T05:48:54.065Z,101143.16
2023-03-13T05:51:24.138Z,101146.31
2023-03-13T05:53:52.560Z,101152.38
2023-03-13T05:56:20.894Z,101148.53
2023-03-13T05:58:49.168Z,101146.81
2023-03-13T06:01:17.577Z,101150.50
2023-03-13T06:03:46.231Z,101160.31
2023-03-13T06:06:14.595Z,101159.66
2023-03-13T06:08:45.472Z,101157.22
2023-03-13T06:11:14.002Z,101158.56
2023-03-13T06:13:42.285Z,101158.56
2023-03-13T06:16:11.134Z,101164.59
2023-03-13T06:18:39.485Z,101169.22
2023-03-13T06:21:07.788Z,101177.06
2023-03-13T06:23:37.213Z,101172.22
2023-03-13T06:26:07.144Z,101171.75
2023-03-13T06:28:35.474Z,101169.09
2023-03-13T06:31:04.721Z,101160.38
2023-03-13T06:33:33.327Z,101172.59
2023-03-13T06:36:03.421Z,101170.56
2023-03-13T06:38:32.426Z,101179.16
2023-03-13T06:41:00.785Z,101177.78
2023-03-13T06:43:31.521Z,101174.38
2023-03-13T06:46:05.528Z,101175.47
2023-03-13T06:48:34.088Z,101167.94
2023-03-13T06:51:02.366Z,101172.16
2023-03-13T06:53:30.759Z,101169.69
2023-03-13T06:56:02.570Z,101171.34
2023-03-13T06:58:33.125Z,101186.81
2023-03-13T07:01:02.196Z,101172.28
2023-03-13T07:03:30.910Z,101178.03
2023-03-13T07:06:00.142Z,101175.44
2023-03-13T07:08:28.943Z,101177.84
2023-03-13T07:11:01.407Z,101172.50
2023-03-13T07:13:30.158Z,101179.19
2023-03-13T07:16:04.706Z,101171.16
2023-03-13T07:18:35.161Z,101177.28
2023-03-13T07:21:07.758Z,101182.63
2023-03-13T07:23:37.283Z,101184.50
2023-03-13T07:26:08.477Z,101196.75
2023-03-13T07:28:37.972Z,101181.81
2023-03-13T07:31:12.148Z,101188.47
2023-03-13T07:33:40.740Z,101191.41
2023-03-13T07:36:10.572Z,101192.72
2023-03-13T07:38:39.699Z,101185.53
2023-03-13T07:41:10.002Z,101197.31
2023-03-13T07:43:40.383Z,101182.34
2023-03-13T07:46:13.272Z,101189.31
2023-03-13T07:48:44.256Z,101188.25
2023-03-13T07:51:15.388Z,101190.38
2023-03-13T07:53:43.954Z,101192.00
2023-03-13T07:56:14.680Z,101188.25
2023-03-13T07:58:43.898Z,101178.91
2023-03-13T08:01:16.210Z,101184.50
2023-03-13T08:03:45.455Z,101193.59
2023-03-13T08:06:16.689Z,101196.25
2023-03-13T08:08:45.336Z,101210.63
2023-03-13T08:11:15.401Z,101202.09
2023-03-13T08:13:44.165Z,101199.44
2023-03-13T08:16:15.893Z,101192.78
2023-03-13T08:18:45.853Z,101192.78
2023-03-13T08:21:16.130Z,101201.31
2023-03-13T08:23:44.780Z,101203.72
2023-03-13T08:26:14.787Z,101204.81
2023-03-13T08:28:43.600Z,101195.69
2023-03-13T08:31:15.285Z,101187.72
2023-03-13T08:33:45.194Z,101188.75
2023-03-13T08:36:14.682Z,101192.25
2023-03-13T08:38:45.931Z,101197.03
2023-03-13T08:41:16.953Z,101186.38
2023-03-13T08:43:45.304Z,101194.38
2023-03-13T08:46:17.821Z,101197.88
2023-03-13T08:48:51.775Z,101188.78
2023-03-13T08:51:30.976Z,101196.78
2023-03-13T08:53:59.538Z,101198.38
2023-03-13T08:56:30.566Z,101201.06
2023-03-13T08:59:00.102Z,101200.50
2023-03-13T09:01:31.433Z,101208.75
2023-03-13T09:04:03.412Z,101204.22
2023-03-13T09:06:32.709Z,101202.34
2023-03-13T09:09:03.971Z,101203.97
2023-03-13T09:11:32.508Z,101197.84
2023-03-13T09:14:00.913Z,101197.06
2023-03-13T09:16:33.109Z,101192.22
2023-03-13T09:19:01.995Z,101196.50
2023-03-13T09:21:32.121Z,101188.72
2023-03-13T09:24:02.277Z,101192.19
2023-03-13T09:26:30.839Z,101186.06
2023-03-13T09:28:59.463Z,101190.91
2023-03-13T09:31:30.011Z,101186.06
2023-03-13T09:34:00.608Z,101185.19
2023-03-13T09:36:29.848Z,101191.31
2023-03-13T09:39:00.630Z,101198.78
2023-03-13T09:41:35.356Z,101197.78
2023-03-13T09:44:08.986Z,101204.16
2023-03-13T09:46:42.741Z,101209.25
2023-03-13T09:49:23.904Z,101224.00
2023-03-13T09:51:57.874Z,101209.06
2023-03-13T09:54:29.888Z,101225.63
2023-03-13T09:57:00.391Z,101222.41
2023-03-13T09:59:37.505Z,101218.63
2023-03-13T10:02:16.111Z,101215.44
2023-03-13T10:04:49.561Z,101214.84
2023-03-13T10:07:17.920Z,101200.16
2023-03-13T10:09:46.358Z,101210.56
2023-03-13T10:12:20.908Z,101216.50
2023-03-13T10:15:00.936Z,101225.34
2023-03-13T10:20:25.086Z,101207.72
2023-03-13T10:22:55.972Z,101210.63
2023-03-13T10:25:33.867Z,101193.31
2023-03-13T10:28:02.626Z,101205.59
2023-03-13T10:30:32.872Z,101199.69
2023-03-13T10:33:02.376Z,101195.38
2023-03-13T10:35:37.052Z,101186.84
2023-03-13T10:38:10.464Z,101192.41
2023-03-13T10:40:39.416Z,101180.75
2023-03-13T10:43:14.343Z,101186.09
2023-03-13T10:45:42.768Z,101179.59
2023-03-13T10:48:16.611Z,101179.63
2023-03-13T10:50:48.277Z,101172.94
2023-03-13T10:53:28.869Z,101180.16
2023-03-13T10:55:59.288Z,101174.78
2023-03-13T10:58:34.829Z,101172.69
2023-03-13T11:01:18.930Z,101173.22
2023-03-13T11:03:48.547Z,101163.91
2023-03-13T11:06:31.470Z,101170.00
2023-03-13T11:09:13.433Z,101167.00
2023-03-13T11:11:50.446Z,101161.41
2023-03-13T11:14:20.525Z,101162.50
2023-03-13T11:16:51.276Z,101150.28
2023-03-13T11:19:34.544Z,101158.25
2023-03-13T11:22:16.534Z,101140.25
2023-03-13T11:24:51.060Z,101141.16
2023-03-13T11:27:28.916Z,101145.47
2023-03-13T11:30:09.412Z,101129.75
2023-03-13T11:32:44.782Z,101130.81
2023-03-13T11:35:27.628Z,101125.22
2023-03-13T11:37:58.795Z,101123.66
2023-03-13T11:40:33.671Z,101121.22
2023-03-13T11:43:24.550Z,101104.47
2023-03-13T11:46:20.005Z,101118.31
2023-03-13T11:49:13.428Z,101108.75
2023-03-13T11:51:56.133Z,101111.94
2023-03-13T11:54:51.182Z,101106.63
2023-03-13T11:57:29.823Z,101111.63
2023-03-13T12:00:30.749Z,101100.69
2023-03-13T12:03:07.677Z,101102.53
2023-03-13T12:05:46.902Z,101109.25
2023-03-13T12:08:21.198Z,101110.31
2023-03-13T12:10:57.723Z,101104.47
2023-03-13T12:13:33.306Z,101113.75
2023-03-13T12:16:08.129Z,101106.56
2023-03-13T12:18:39.798Z,101097.50
2023-03-13T12:21:19.608Z,101098.59
2023-03-13T12:23:55.375Z,101100.44
2023-03-13T12:26:36.091Z,101102.03
2023-03-13T12:29:16.705Z,101098.34
2023-03-13T12:31:51.448Z,101099.63
2023-03-13T12:34:29.366Z,101103.41
2023-03-13T12:37:14.773Z,101098.06
2023-03-13T12:39:50.364Z,101101.53
2023-03-13T12:42:31.511Z,101089.53
2023-03-13T12:45:01.746Z,101093.00
2023-03-13T12:47:34.886Z,101093.81
2023-03-13T12:50:25.949Z,101094.88
2023-03-13T12:53:21.759Z,101092.75
2023-03-13T12:56:16.836Z,101086.06
2023-03-13T12:58:51.601Z,101092.47
2023-03-13T13:01:33.753Z,101099.13
2023-03-13T13:04:07.241Z,101090.09
2023-03-13T13:06:57.644Z,101098.63
2023-03-13T13:09:28.219Z,101094.06
2023-03-13T13:11:59.602Z,101085.28
2023-03-13T13:15:04.086Z,101090.06
2023-03-13T13:18:01.967Z,101087.13
2023-03-13T13:20:40.421Z,101083.94
2023-03-13T13:23:37.077Z,101088.47
2023-03-13T13:26:48.484Z,101080.75
2023-03-13T13:29:56.757Z,101081.00
2023-03-13T13:32:45.278Z,101069.81
2023-03-13T13:35:29.499Z,101073.00
2023-03-13T13:38:37.146Z,101067.66
2023-03-13T13:41:25.920Z,101078.34
2023-03-13T13:44:24.535Z,101073.28
2023-03-13T13:46:56.244Z,101078.34
2023-03-13T13:49:32.815Z,101076.75
2023-03-13T13:52:36.269Z,101066.34
2023-03-13T13:55:31.157Z,101062.88
2023-03-13T13:58:05.129Z,101081.56
2023-03-13T14:00:44.345Z,101075.94
2023-03-13T14:03:25.229Z,101072.72
2023-03-13T14:06:05.545Z,101074.34
2023-03-13T14:08:39.929Z,101075.41
2023-03-13T14:11:29.048Z,101064.72
2023-03-13T14:14:19.174Z,101066.59
2023-03-13T14:16:52.824Z,101068.75
2023-03-13T14:19:31.609Z,101064.75
2023-03-13T14:22:09.377Z,101074.06
2023-03-13T14:24:39.166Z,101073.50
2023-03-13T14:27:17.974Z,101063.13
2023-03-13T14:30:02.930Z,101064.44
2023-03-13T14:32:31.868Z,101052.22
2023-03-13T14:35:01.004Z,101060.75
2023-03-13T14:37:39.873Z,101061.00
2023-03-13T14:40:11.278Z,101063.91
2023-03-13T14:42:43.497Z,101059.66
2023-03-13T14:45:17.294Z,101065.81
2023-03-13T14:47:46.459Z,101057.53
2023-03-13T14:50:19.780Z,101065.00
2023-03-13T14:52:53.957Z,101063.91
2023-03-13T14:55:35.017Z,101054.00
2023-03-13T14:58:07.467Z,101054.31
2023-03-13T15:00:41.724Z,101053.25
2023-03-13T15:03:36.883Z,101058.84
2023-03-13T15:06:08.567Z,101064.44
2023-03-13T15:08:43.206Z,101053.50
2023-03-13T15:11:42.280Z,101052.16
2023-03-13T15:14:39.662Z,101058.50
2023-03-13T15:17:19.361Z,101054.25
2023-03-13T15:19:56.912Z,101055.81
2023-03-13T15:22:30.838Z,101057.44
2023-03-13T15:25:08.369Z,101059.84
2023-03-13T15:27:40.455Z,101059.56
2023-03-13T15:30:09.916Z,101071.22
2023-03-13T15:32:42.665Z,101071.19
2023-03-13T15:35:24.564Z,101066.38
2023-03-13T15:37:53.425Z,101081.22
2023-03-13T15:40:26.835Z,101070.56
2023-03-13T15:42:56.652Z,101081.22
2023-03-13T15:45:25.778Z,101071.84
2023-03-13T15:47:54.929Z,101071.03
2023-03-13T15:50:29.770Z,101074.72
2023-03-13T15:53:00.916Z,101071.50
2023-03-13T15:55:31.534Z,101078.34
2023-03-13T15:58:02.560Z,101083.69
2023-03-13T16:00:31.245Z,101083.09
2023-03-13T16:03:03.105Z,101085.19
2023-03-13T16:05:32.121Z,101081.94
2023-03-13T16:08:00.662Z,101080.81
2023-03-13T16:10:33.774Z,101079.97
2023-03-13T16:13:03.789Z,101074.31
2023-03-13T16:15:33.116Z,101084.09
2023-03-13T16:18:05.199Z,101076.88
2023-03-13T16:20:35.957Z,101079.53
2023-03-13T16:23:07.622Z,101088.53
2023-03-13T16:25:39.082Z,101087.38
2023-03-13T16:28:09.466Z,101092.66
2023-03-13T16:30:38.432Z,101087.63
2023-03-13T16:33:07.555Z,101094.75
2023-03-13T16:35:36.324Z,101087.22
2023-03-13T16:38:05.853Z,101097.31
2023-03-13T16:40:35.515Z,101101.00
2023-03-13T16:43:05.977Z,101094.91
2023-03-13T16:45:41.739Z,101099.34
2023-03-13T16:48:20.090Z,101099.78
2023-03-13T16:50:49.375Z,101105.66
2023-03-13T16:53:18.194Z,101103.56
2023-03-13T16:55:48.077Z,101110.97
2023-03-13T16:58:21.806Z,101108.81
2023-03-13T17:01:04.661Z,101104.31
2023-03-13T17:03:34.964Z,101101.84
2023-03-13T17:06:03.715Z,101104.19
2023-03-13T17:08:32.364Z,101105.25
2023-03-13T17:11:01.262Z,101105.44
2023-03-13T17:13:31.118Z,101101.25
2023-03-13T17:16:01.223Z,101098.63
2023-03-13T17:18:31.147Z,101098.13
2023-03-13T17:21:01.038Z,101099.63
2023-03-13T17:23:31.148Z,101103.06
2023-03-13T17:26:00.542Z,101097.47
2023-03-13T17:28:32.095Z,101100.13
2023-03-13T17:31:02.213Z,101101.56
2023-03-13T17:33:30.876Z,101096.66
2023-03-13T17:35:59.621Z,101096.16
2023-03-13T17:38:28.445Z,101101.47
2023-03-13T17:40:57.198Z,101100.34
2023-03-13T17:43:25.997Z,101101.91
2023-03-13T17:45:57.154Z,101097.59
2023-03-13T17:48:27.908Z,101096.72
2023-03-13T17:50:56.607Z,101098.00
2023-03-13T17:53:25.169Z,101100.25
2023-03-13T17:55:55.739Z,101103.16
2023-03-13T17:58:24.589Z,101099.28
2023-03-13T18:01:00.325Z,101107.19
2023-03-13T18:03:30.045Z,101099.13
2023-03-13T18:05:59.942Z,101100.75
2023-03-13T18:08:29.566Z,101102.66
2023-03-13T18:10:58.285Z,101110.28
2023-03-13T18:13:27.313Z,101106.44
2023-03-13T18:15:57.280Z,101107.19
2023-03-13T18:18:26.289Z,101108.16
2023-03-13T18:20:56.469Z,101104.13
2023-03-13T18:23:29.971Z,101107.28
2023-03-13T18:25:58.534Z,101106.41
2023-03-13T18:28:27.080Z,101104.00
2023-03-13T18:30:57.103Z,101101.81
2023-03-13T18:33:25.634Z,101100.53
2023-03-13T18:35:55.496Z,101102.72
2023-03-13T18:38:24.469Z,101103.50
2023-03-13T18:40:53.145Z,101116.69
2023-03-13T18:43:21.914Z,101111.16
2023-03-13T18:45:50.417Z,101114.13
2023-03-13T18:48:20.424Z,101111.97
2023-03-13T18:50:49.275Z,101104.09
2023-03-13T18:53:18.281Z,101100.97
2023-03-13T18:55:47.083Z,101103.69
2023-03-13T18:58:15.483Z,101108.34
2023-03-13T19:00:44.973Z,101101.44
2023-03-13T19:03:13.684Z,101106.19
2023-03-13T19:05:44.530Z,101105.16
2023-03-13T19:08:13.543Z,101102.41
2023-03-13T19:10:43.132Z,101109.94
2023-03-13T19:13:11.612Z,101109.50
2023-03-13T19:15:40.097Z,101105.63
2023-03-13T19:18:13.179Z,101105.06
2023-03-13T19:20:44.045Z,101105.53
2023-03-13T19:23:13.755Z,101107.41
2023-03-13T19:25:43.500Z,101100.16
2023-03-13T19:28:12.582Z,101098.63
2023-03-13T19:30:44.623Z,101112.81
2023-03-13T19:33:13.786Z,101103.06
2023-03-13T19:35:44.741Z,101102.88
2023-03-13T19:38:14.635Z,101094.75
2023-03-13T19:40:44.319Z,101096.25
2023-03-13T19:43:16.963Z,101093.59
2023-03-13T19:45:49.907Z,101100.03
2023-03-13T19:48:36.606Z,101092.75
2023-03-13T19:51:07.871Z,101092.34
2023-03-13T19:53:44.464Z,101096.28
2023-03-13T19:56:20.853Z,101091.13
2023-03-13T19:58:50.727Z,101091.78
2023-03-13T20:01:28.154Z,101098.53
2023-03-13T20:04:00.141Z,101098.84
2023-03-13T20:06:32.389Z,101094.63
2023-03-13T20:09:03.423Z,101091.97
2023-03-13T20:11:37.840Z,101085.53
2023-03-13T20:14:08.652Z,101086.03
2023-03-13T20:16:38.585Z,101093.84
2023-03-13T20:19:08.390Z,101090.91
2023-03-13T20:21:43.580Z,101088.56
2023-03-13T20:24:19.263Z,101089.47
2023-03-13T20:26:48.516Z,101092.59
2023-03-13T20:29:18.144Z,101090.66
2023-03-13T20:31:47.692Z,101088.41
2023-03-13T20:34:16.942Z,101084.69
2023-03-13T20:36:47.336Z,101071.22
2023-03-13T20:39:17.146Z,101075.78
2023-03-13T20:41:46.949Z,101076.91
2023-03-13T20:44:15.782Z,101074.56
2023-03-13T20:46:48.192Z,101073.75
2023-03-13T20:49:17.285Z,101068.06
2023-03-13T20:51:52.410Z,101064.19
2023-03-13T20:54:28.012Z,101066.28
2023-03-13T20:56:59.835Z,101058.16
2023-03-13T20:59:29.443Z,101059.59
2023-03-13T21:02:02.886Z,101050.97
2023-03-13T21:04:32.490Z,101057.06
2023-03-13T21:07:13.334Z,101056.25
2023-03-13T21:09:44.603Z,101044.22
2023-03-13T21:12:13.746Z,101045.13
2023-03-13T21:14:58.647Z,101052.72
2023-03-13T21:17:27.916Z,101054.34
2023-03-13T21:19:59.917Z,101053.88
2023-03-13T21:22:30.657Z,101048.13
2023-03-13T21:25:02.757Z,101044.34
2023-03-13T21:27:32.739Z,101043.22
2023-03-13T21:30:04.331Z,101041.59
2023-03-13T21:32:33.987Z,101040.03
2023-03-13T21:35:10.216Z,101042.09
2023-03-13T21:37:41.083Z,101025.25
2023-03-13T21:40:11.124Z,101025.31
2023-03-13T21:42:39.748Z,101021.88
2023-03-13T21:45:10.089Z,101028.78
2023-03-13T21:47:38.887Z,101023.25
2023-03-13T21:50:10.195Z,101024.81
2023-03-13T21:52:42.419Z,101026.22
2023-03-13T21:55:14.000Z,101022.59
2023-03-13T21:57:42.656Z,101029.59
2023-03-13T22:00:14.335Z,101018.22
2023-03-13T22:02:44.418Z,101022.53
2023-03-13T22:05:14.288Z,101021.16
2023-03-13T22:07:45.637Z,101007.84
2023-03-13T22:10:14.607Z,101012.91
2023-03-13T22:12:43.409Z,101014.41
2023-03-13T22:15:13.283Z,101012.53
2023-03-13T22:17:42.113Z,101008.06
2023-03-13T22:20:14.112Z,101009.59
2023-03-13T22:22:48.425Z,101013.25
2023-03-13T22:25:21.137Z,101013.81
2023-03-13T22:27:50.059Z,101016.47
2023-03-13T22:30:20.410Z,101018.53
2023-03-13T22:32:49.151Z,101017.53
2023-03-13T22:35:19.044Z,101015.91
2023-03-13T22:37:49.593Z,101015.47
2023-03-13T22:40:20.419Z,101013.06
2023-03-13T22:42:49.523Z,101014.13
2023-03-13T22:45:18.772Z,101003.06
2023-03-13T22:48:18.438Z,100997.53
2023-03-13T22:50:47.292Z,100999.28
2023-03-13T22:53:20.804Z,100997.28
2023-03-13T22:55:50.779Z,101002.41
2023-03-13T22:58:19.951Z,101000.34
2023-03-13T23:00:51.135Z,100997.03
2023-03-13T23:03:20.200Z,100998.50
2023-03-13T23:05:52.410Z,100999.06
2023-03-13T23:08:36.593Z,100992.28
2023-03-13T23:11:07.185Z,100999.78
2023-03-13T23:13:35.921Z,100996.13
2023-03-13T23:16:09.044Z,100986.97
2023-03-13T23:18:38.821Z,100989.88
2023-03-13T23:21:09.769Z,100990.66
2023-03-13T23:23:40.270Z,100991.09
2023-03-13T23:26:16.145Z,100986.50
2023-03-13T23:28:44.581Z,100986.59
2023-03-13T23:31:15.848Z,100984.31
2023-03-13T23:33:45.704Z,100976.59
2023-03-13T23:36:17.107Z,100969.78
2023-03-13T23:38:51.300Z,100960.13
2023-03-13T23:41:21.300Z,100962.69
2023-03-13T23:43:49.973Z,100960.06
2023-03-13T23:46:19.452Z,100957.19
2023-03-13T23:48:48.366Z,100956.66
2023-03-13T23:51:17.383Z,100945.41
2023-03-13T23:53:47.274Z,100950.38
2023-03-13T23:56:19.481Z,100939.22
2023-03-13T23:58:56.144Z,100941.41
